X  Sluiten METAR luchtvaart weer gegevens      EHGG Eelde Airport
Temperatuur
3°C Temperatuur
0°C Dauwpunt
81% Vochtigheid



Wind
11 KM/U
7 MPH
3 M/S
6 KTS



50°
NO
Huidig weer

Geheel bewolkt Geheel bewolkt
Luchtdruk 1026.92 (hPa) - 30.32 (inHg)
Zicht 5 (mijl) - 8 (km)
Vliegveld
Vliegveld code EHGG

Locatie : Eelde Airport
Afstand: 40 (km)

Metar:
EHGG 020025Z AUTO 05006KT 8000 OVC016/// 03/00 Q1027

Tijd: 02-12-2022 01:25 CET